createdAt,value
2018-07-03T00:00:03.900Z,13.61
2018-07-03T00:00:07.999Z,13.61
2018-07-03T00:00:12.099Z,13.6
2018-07-03T00:00:16.312Z,13.6
2018-07-03T00:00:20.670Z,13.6
2018-07-03T00:00:24.881Z,13.6
2018-07-03T00:00:29.090Z,13.59
2018-07-03T00:00:33.404Z,13.59
2018-07-03T00:00:37.606Z,13.59
2018-07-03T00:00:41.806Z,13.59
2018-07-03T00:00:45.733Z,13.6
2018-07-03T00:00:49.935Z,13.59
2018-07-03T00:00:54.243Z,13.59
2018-07-03T00:00:58.456Z,13.59
2018-07-03T00:01:02.665Z,13.59
2018-07-03T00:01:06.884Z,13.59
2018-07-03T00:01:11.197Z,13.59
2018-07-03T00:01:15.517Z,13.59
2018-07-03T00:01:19.720Z,13.59
2018-07-03T00:01:23.926Z,13.59
2018-07-03T00:01:28.245Z,13.59
2018-07-03T00:01:32.448Z,13.58
2018-07-03T00:01:36.542Z,13.58
2018-07-03T00:01:40.851Z,13.59
2018-07-03T00:01:44.946Z,13.59
2018-07-03T00:01:49.149Z,13.59
2018-07-03T00:01:53.472Z,13.58
2018-07-03T00:01:57.675Z,13.58
2018-07-03T00:02:01.883Z,13.59
2018-07-03T00:02:06.094Z,13.59
2018-07-03T00:02:10.402Z,13.59
2018-07-03T00:02:14.496Z,13.58
2018-07-03T00:02:18.798Z,13.59
2018-07-03T00:02:23.105Z,13.58
2018-07-03T00:02:27.199Z,13.58
2018-07-03T00:02:31.304Z,13.57
2018-07-03T00:02:35.400Z,13.58
2018-07-03T00:02:39.713Z,13.58
2018-07-03T00:02:43.966Z,13.58
2018-07-03T00:02:48.165Z,13.58
2018-07-03T00:02:52.256Z,13.58
2018-07-03T00:02:56.507Z,13.57
2018-07-03T00:03:00.711Z,13.57
2018-07-03T00:03:04.815Z,13.57
2018-07-03T00:03:09.130Z,13.57
2018-07-03T00:03:13.436Z,13.57
2018-07-03T00:03:17.750Z,13.57
2018-07-03T00:03:21.953Z,13.56
2018-07-03T00:03:26.157Z,13.56
2018-07-03T00:03:30.475Z,13.56
2018-07-03T00:03:34.781Z,13.57
2018-07-03T00:03:38.986Z,13.57
2018-07-03T00:03:43.300Z,13.56
2018-07-03T00:03:47.608Z,13.55
2018-07-03T00:03:51.811Z,13.56
2018-07-03T00:03:55.920Z,13.56
2018-07-03T00:04:00.122Z,13.56
2018-07-03T00:04:04.218Z,13.56
2018-07-03T00:04:08.432Z,13.56
2018-07-03T00:04:12.527Z,13.56
2018-07-03T00:04:16.621Z,13.55
2018-07-03T00:04:20.927Z,13.55
2018-07-03T00:04:25.030Z,13.56
2018-07-03T00:04:29.240Z,13.54
2018-07-03T00:04:33.451Z,13.55
2018-07-03T00:04:37.654Z,13.55
2018-07-03T00:04:41.858Z,13.55
2018-07-03T00:04:45.956Z,13.55
2018-07-03T00:04:50.156Z,13.54
2018-07-03T00:04:54.466Z,13.54
2018-07-03T00:04:58.663Z,13.55
2018-07-03T00:05:02.924Z,13.54
2018-07-03T00:05:06.910Z,13.54
2018-07-03T00:05:11.113Z,13.53
2018-07-03T00:05:15.424Z,13.53
2018-07-03T00:05:19.525Z,13.53
2018-07-03T00:05:23.832Z,13.53
2018-07-03T00:05:28.141Z,13.52
2018-07-03T00:05:32.452Z,13.52
2018-07-03T00:05:36.548Z,13.51
2018-07-03T00:05:40.746Z,13.52
2018-07-03T00:05:44.844Z,13.52
2018-07-03T00:05:49.046Z,13.51
2018-07-03T00:05:53.356Z,13.51
2018-07-03T00:05:57.666Z,13.51
2018-07-03T00:06:01.972Z,13.51
2018-07-03T00:06:05.971Z,13.51
2018-07-03T00:06:10.183Z,13.5
2018-07-03T00:06:14.497Z,13.5
2018-07-03T00:06:18.709Z,13.5
2018-07-03T00:06:22.810Z,13.5
2018-07-03T00:06:27.135Z,13.49
2018-07-03T00:06:31.333Z,13.49
2018-07-03T00:06:35.429Z,13.49
2018-07-03T00:06:39.740Z,13.48
2018-07-03T00:06:43.738Z,13.48
2018-07-03T00:06:47.949Z,13.48
2018-07-03T00:06:52.148Z,13.48
2018-07-03T00:06:56.467Z,13.48
2018-07-03T00:07:00.774Z,13.47
2018-07-03T00:07:04.874Z,13.47
2018-07-03T00:07:08.865Z,13.47
2018-07-03T00:07:13.182Z,13.47
2018-07-03T00:07:17.066Z,13.46
2018-07-03T00:07:21.266Z,13.46
2018-07-03T00:07:25.472Z,13.45
2018-07-03T00:07:29.674Z,13.45
2018-07-03T00:07:33.878Z,13.45
2018-07-03T00:07:37.878Z,13.46
2018-07-03T00:07:42.083Z,13.44
2018-07-03T00:07:46.281Z,13.45
2018-07-03T00:07:50.490Z,13.45
2018-07-03T00:07:54.797Z,13.44
2018-07-03T00:07:58.890Z,13.43
2018-07-03T00:08:02.886Z,13.43
2018-07-03T00:08:06.873Z,13.43
2018-07-03T00:08:11.183Z,13.43
2018-07-03T00:08:15.496Z,13.43
2018-07-03T00:08:19.700Z,13.41
2018-07-03T00:08:23.899Z,13.42
2018-07-03T00:08:28.106Z,13.41
2018-07-03T00:08:32.413Z,13.42
2018-07-03T00:08:36.721Z,13.41
2018-07-03T00:08:41.024Z,13.41
2018-07-03T00:08:45.122Z,13.4
2018-07-03T00:08:49.327Z,13.41
2018-07-03T00:08:53.639Z,13.41
2018-07-03T00:08:57.948Z,13.4
2018-07-03T00:09:02.143Z,13.4
2018-07-03T00:09:06.346Z,13.4
2018-07-03T00:09:10.554Z,13.39
2018-07-03T00:09:14.869Z,13.4
2018-07-03T00:09:18.964Z,13.39
2018-07-03T00:09:22.950Z,13.38
2018-07-03T00:09:27.161Z,13.39
2018-07-03T00:09:31.368Z,13.39
2018-07-03T00:09:35.470Z,13.38
2018-07-03T00:09:39.567Z,13.39
2018-07-03T00:09:43.558Z,13.38
2018-07-03T00:09:47.878Z,13.38
2018-07-03T00:09:52.200Z,13.37
2018-07-03T00:09:56.512Z,13.37
2018-07-03T00:10:00.616Z,13.37
2018-07-03T00:10:04.819Z,13.36
2018-07-03T00:10:09.021Z,13.37
2018-07-03T00:10:13.323Z,13.37
2018-07-03T00:10:17.526Z,13.37
2018-07-03T00:10:21.616Z,13.37
2018-07-03T00:10:25.928Z,13.37
2018-07-03T00:10:30.137Z,13.37
2018-07-03T00:10:34.456Z,13.35
2018-07-03T00:10:38.659Z,13.36
2018-07-03T00:10:42.754Z,13.35
2018-07-03T00:10:47.111Z,13.35
2018-07-03T00:10:51.427Z,13.36
2018-07-03T00:10:55.631Z,13.35
2018-07-03T00:10:59.946Z,13.35
2018-07-03T00:11:04.048Z,13.34
2018-07-03T00:11:08.153Z,13.35
2018-07-03T00:11:12.465Z,13.34
2018-07-03T00:11:16.773Z,13.35
2018-07-03T00:11:20.967Z,13.36
2018-07-03T00:11:25.176Z,13.35
2018-07-03T00:11:29.489Z,13.35
2018-07-03T00:11:33.701Z,13.34
2018-07-03T00:11:37.795Z,13.34
2018-07-03T00:11:42.002Z,13.34
2018-07-03T00:11:46.211Z,13.34
2018-07-03T00:11:50.429Z,13.33
2018-07-03T00:11:54.759Z,13.34
2018-07-03T00:11:58.964Z,13.33
2018-07-03T00:12:03.061Z,13.34
2018-07-03T00:12:07.264Z,13.33
2018-07-03T00:12:11.463Z,13.33
2018-07-03T00:12:15.563Z,13.33
2018-07-03T00:12:19.762Z,13.33
2018-07-03T00:12:23.865Z,13.33
2018-07-03T00:12:28.081Z,13.33
2018-07-03T00:12:32.390Z,13.34
2018-07-03T00:12:36.700Z,13.33
2018-07-03T00:12:40.907Z,13.33
2018-07-03T00:12:45.115Z,13.34
2018-07-03T00:12:49.424Z,13.33
2018-07-03T00:12:53.625Z,13.33
2018-07-03T00:12:57.834Z,13.33
2018-07-03T00:13:01.943Z,13.34
2018-07-03T00:13:05.939Z,13.33
2018-07-03T00:13:10.149Z,13.34
2018-07-03T00:13:14.450Z,13.34
2018-07-03T00:13:18.763Z,13.32
2018-07-03T00:13:23.073Z,13.33
2018-07-03T00:13:27.281Z,13.33
2018-07-03T00:13:31.597Z,13.34
2018-07-03T00:13:35.816Z,13.34
2018-07-03T00:13:40.119Z,13.33
2018-07-03T00:13:44.425Z,13.33
2018-07-03T00:13:48.743Z,13.33
2018-07-03T00:13:52.834Z,13.33
2018-07-03T00:13:57.146Z,13.33
2018-07-03T00:14:01.357Z,13.33
2018-07-03T00:14:05.568Z,13.34
2018-07-03T00:14:09.887Z,13.34
2018-07-03T00:14:14.192Z,13.33
2018-07-03T00:14:18.555Z,13.33
2018-07-03T00:14:22.658Z,13.34
2018-07-03T00:14:26.653Z,13.33
2018-07-03T00:14:30.754Z,13.33
2018-07-03T00:14:35.063Z,13.33
2018-07-03T00:14:39.374Z,13.33
2018-07-03T00:14:43.471Z,13.34
2018-07-03T00:14:47.776Z,13.33
2018-07-03T00:14:52.093Z,13.34
2018-07-03T00:14:56.295Z,13.33
2018-07-03T00:15:00.297Z,13.33
2018-07-03T00:15:04.404Z,13.33
2018-07-03T00:15:08.506Z,13.33
2018-07-03T00:15:12.714Z,13.32
2018-07-03T00:15:17.019Z,13.33
2018-07-03T00:15:21.012Z,13.33
2018-07-03T00:15:25.116Z,13.33
2018-07-03T00:15:29.109Z,13.33
2018-07-03T00:15:33.311Z,13.33
2018-07-03T00:15:37.419Z,13.34
2018-07-03T00:15:41.411Z,13.34
2018-07-03T00:15:45.305Z,13.33
2018-07-03T00:15:49.514Z,13.33
2018-07-03T00:15:53.831Z,13.33
2018-07-03T00:15:57.927Z,13.33
2018-07-03T00:16:02.287Z,13.33
2018-07-03T00:16:06.390Z,13.33
2018-07-03T00:16:10.598Z,13.33
2018-07-03T00:16:14.699Z,13.34
2018-07-03T00:16:19.016Z,13.34
2018-07-03T00:16:23.222Z,13.34
2018-07-03T00:16:27.434Z,13.35
2018-07-03T00:16:31.741Z,13.34
2018-07-03T00:16:35.731Z,13.35
2018-07-03T00:16:39.934Z,13.34
2018-07-03T00:16:44.039Z,13.35
2018-07-03T00:16:48.348Z,13.34
2018-07-03T00:16:52.346Z,13.35
2018-07-03T00:16:56.656Z,13.35
2018-07-03T00:17:00.860Z,13.35
2018-07-03T00:17:05.175Z,13.35
2018-07-03T00:17:09.275Z,13.34
2018-07-03T00:17:13.476Z,13.35
2018-07-03T00:17:17.789Z,13.35
2018-07-03T00:17:22.097Z,13.35
2018-07-03T00:17:26.088Z,13.36
2018-07-03T00:17:30.291Z,13.35
2018-07-03T00:17:34.385Z,13.36
2018-07-03T00:17:38.616Z,13.36
2018-07-03T00:17:42.925Z,13.37
2018-07-03T00:17:47.241Z,13.36
2018-07-03T00:17:51.442Z,13.36
2018-07-03T00:17:55.642Z,13.37
2018-07-03T00:17:59.856Z,13.36
2018-07-03T00:18:03.957Z,13.37
2018-07-03T00:18:08.052Z,13.37
2018-07-03T00:18:12.255Z,13.36
2018-07-03T00:18:16.361Z,13.37
2018-07-03T00:18:20.461Z,13.37
2018-07-03T00:18:24.772Z,13.37
2018-07-03T00:18:29.077Z,13.37
2018-07-03T00:18:33.388Z,13.37
2018-07-03T00:18:37.485Z,13.37
2018-07-03T00:18:41.689Z,13.38
2018-07-03T00:18:45.896Z,13.38
2018-07-03T00:18:50.219Z,13.38
2018-07-03T00:18:54.537Z,13.38
2018-07-03T00:18:58.743Z,13.38
2018-07-03T00:19:02.846Z,13.38
2018-07-03T00:19:07.054Z,13.38
2018-07-03T00:19:10.837Z,13.38
2018-07-03T00:19:15.050Z,13.38
2018-07-03T00:19:19.252Z,13.38
2018-07-03T00:19:23.570Z,13.39
2018-07-03T00:19:27.572Z,13.39
2018-07-03T00:19:31.784Z,13.39
2018-07-03T00:19:35.887Z,13.39
2018-07-03T00:19:40.199Z,13.39
2018-07-03T00:19:44.509Z,13.39
2018-07-03T00:19:48.711Z,13.39
2018-07-03T00:19:52.925Z,13.4
2018-07-03T00:19:57.137Z,13.4
2018-07-03T00:20:01.448Z,13.4
2018-07-03T00:20:05.279Z,13.4
2018-07-03T00:20:09.489Z,13.4
2018-07-03T00:20:13.691Z,13.4
2018-07-03T00:20:17.901Z,13.4
2018-07-03T00:20:22.211Z,13.4
2018-07-03T00:20:26.412Z,13.41
2018-07-03T00:20:30.462Z,13.4
2018-07-03T00:20:34.771Z,13.4
2018-07-03T00:20:39.080Z,13.41
2018-07-03T00:20:43.170Z,13.4
2018-07-03T00:20:47.367Z,13.41
2018-07-03T00:20:51.676Z,13.41
2018-07-03T00:20:55.986Z,13.4
2018-07-03T00:21:00.189Z,13.41
2018-07-03T00:21:04.396Z,13.41
2018-07-03T00:21:08.492Z,13.41
2018-07-03T00:21:12.697Z,13.41
2018-07-03T00:21:16.797Z,13.41
2018-07-03T00:21:21.001Z,13.42
2018-07-03T00:21:25.092Z,13.41
2018-07-03T00:21:29.408Z,13.42
2018-07-03T00:21:33.613Z,13.42
2018-07-03T00:21:37.814Z,13.41
2018-07-03T00:21:42.022Z,13.42
2018-07-03T00:21:46.116Z,13.42
2018-07-03T00:21:50.113Z,13.42
2018-07-03T00:21:54.419Z,13.42
2018-07-03T00:21:58.624Z,13.41
2018-07-03T00:22:02.613Z,13.42
2018-07-03T00:22:06.868Z,13.42
2018-07-03T00:22:11.069Z,13.43
2018-07-03T00:22:15.172Z,13.42
2018-07-03T00:22:19.482Z,13.42
2018-07-03T00:22:23.794Z,13.41
2018-07-03T00:22:27.895Z,13.42
2018-07-03T00:22:32.102Z,13.42
2018-07-03T00:22:36.309Z,13.42
2018-07-03T00:22:40.616Z,13.42
2018-07-03T00:22:44.717Z,13.41
2018-07-03T00:22:48.916Z,13.42
2018-07-03T00:22:53.118Z,13.42
2018-07-03T00:22:57.427Z,13.42
2018-07-03T00:23:01.524Z,13.42
2018-07-03T00:23:05.631Z,13.42
2018-07-03T00:23:09.944Z,13.42
2018-07-03T00:23:13.934Z,13.42
2018-07-03T00:23:18.250Z,13.42
2018-07-03T00:23:22.450Z,13.41
2018-07-03T00:23:26.553Z,13.42
2018-07-03T00:23:30.754Z,13.41
2018-07-03T00:23:34.962Z,13.42
2018-07-03T00:23:39.279Z,13.42
2018-07-03T00:23:43.484Z,13.42
2018-07-03T00:23:47.801Z,13.42
2018-07-03T00:23:52.114Z,13.42
2018-07-03T00:23:56.315Z,13.42
2018-07-03T00:24:00.521Z,13.42
2018-07-03T00:24:04.512Z,13.42
2018-07-03T00:24:08.726Z,13.41
2018-07-03T00:24:12.720Z,13.42
2018-07-03T00:24:16.710Z,13.42
2018-07-03T00:24:21.019Z,13.42
2018-07-03T00:24:25.118Z,13.42
2018-07-03T00:24:29.009Z,13.42
2018-07-03T00:24:33.314Z,13.41
2018-07-03T00:24:37.620Z,13.42
2018-07-03T00:24:41.817Z,13.41
2018-07-03T00:24:45.908Z,13.41
2018-07-03T00:24:50.224Z,13.41
2018-07-03T00:24:54.527Z,13.41
2018-07-03T00:24:58.628Z,13.42
2018-07-03T00:25:03.047Z,13.41
2018-07-03T00:25:07.146Z,13.42
2018-07-03T00:25:11.250Z,13.42
2018-07-03T00:25:15.237Z,13.42
2018-07-03T00:25:19.566Z,13.42
2018-07-03T00:25:23.548Z,13.42
2018-07-03T00:25:27.656Z,13.42
2018-07-03T00:25:31.857Z,13.42
2018-07-03T00:25:36.164Z,13.41
2018-07-03T00:25:40.258Z,13.42
2018-07-03T00:25:44.463Z,13.41
2018-07-03T00:25:48.670Z,13.42
2018-07-03T00:25:52.774Z,13.43
2018-07-03T00:25:56.976Z,13.43
2018-07-03T00:26:01.177Z,13.41
2018-07-03T00:26:05.062Z,13.42
2018-07-03T00:26:09.266Z,13.42
2018-07-03T00:26:13.468Z,13.42
2018-07-03T00:26:17.673Z,13.43
2018-07-03T00:26:21.772Z,13.43
2018-07-03T00:26:25.970Z,13.43
2018-07-03T00:26:30.303Z,13.43
2018-07-03T00:26:34.400Z,13.43
2018-07-03T00:26:38.723Z,13.42
2018-07-03T00:26:42.930Z,13.43
2018-07-03T00:26:47.244Z,13.43
2018-07-03T00:26:51.556Z,13.43
2018-07-03T00:26:55.769Z,13.43
2018-07-03T00:27:00.086Z,13.43
2018-07-03T00:27:04.290Z,13.43
2018-07-03T00:27:08.385Z,13.43
2018-07-03T00:27:12.585Z,13.44
2018-07-03T00:27:16.787Z,13.44
2018-07-03T00:27:20.993Z,13.44
2018-07-03T00:27:25.092Z,13.43
2018-07-03T00:27:29.195Z,13.43
2018-07-03T00:27:33.300Z,13.43
2018-07-03T00:27:37.615Z,13.44
2018-07-03T00:27:41.819Z,13.44
2018-07-03T00:27:46.027Z,13.44
2018-07-03T00:27:50.127Z,13.43
2018-07-03T00:27:54.329Z,13.43
2018-07-03T00:27:58.648Z,13.44
2018-07-03T00:28:02.749Z,13.45
2018-07-03T00:28:06.848Z,13.44
2018-07-03T00:28:10.946Z,13.45
2018-07-03T00:28:15.037Z,13.44
2018-07-03T00:28:19.132Z,13.44
2018-07-03T00:28:23.333Z,13.44
2018-07-03T00:28:27.641Z,13.44
2018-07-03T00:28:31.732Z,13.45
2018-07-03T00:28:36.047Z,13.44
2018-07-03T00:28:40.356Z,13.45
2018-07-03T00:28:44.665Z,13.44
2018-07-03T00:28:48.757Z,13.45
2018-07-03T00:28:52.747Z,13.45
2018-07-03T00:28:56.954Z,13.45
2018-07-03T00:29:01.154Z,13.45
2018-07-03T00:29:05.356Z,13.45
2018-07-03T00:29:09.664Z,13.45
2018-07-03T00:29:13.973Z,13.45
2018-07-03T00:29:18.071Z,13.45
2018-07-03T00:29:22.274Z,13.46
2018-07-03T00:29:26.491Z,13.45
2018-07-03T00:29:30.479Z,13.45
2018-07-03T00:29:34.586Z,13.46
2018-07-03T00:29:38.786Z,13.45
2018-07-03T00:29:42.993Z,13.45
2018-07-03T00:29:47.208Z,13.45
2018-07-03T00:29:51.518Z,13.45
2018-07-03T00:29:55.721Z,13.45
2018-07-03T00:29:59.923Z,13.46
2018-07-03T00:30:04.030Z,13.45
2018-07-03T00:30:08.343Z,13.46
2018-07-03T00:30:12.549Z,13.45
2018-07-03T00:30:16.752Z,13.45
2018-07-03T00:30:53.060Z,13.45
2018-07-03T00:30:57.052Z,13.46
2018-07-03T00:31:01.276Z,13.45
2018-07-03T00:31:05.520Z,13.44
2018-07-03T00:31:09.627Z,13.45
2018-07-03T00:31:13.940Z,13.46
2018-07-03T00:31:18.042Z,13.46
2018-07-03T00:31:22.357Z,13.45
2018-07-03T00:31:26.561Z,13.45
2018-07-03T00:31:30.872Z,13.45
2018-07-03T00:31:35.074Z,13.46
2018-07-03T00:31:39.283Z,13.46
2018-07-03T00:31:43.386Z,13.45
2018-07-03T00:31:47.593Z,13.45
2018-07-03T00:31:51.808Z,13.45
2018-07-03T00:31:56.010Z,13.44
2018-07-03T00:32:00.319Z,13.44
2018-07-03T00:32:04.360Z,13.44
2018-07-03T00:32:08.459Z,13.45
2018-07-03T00:32:12.470Z,13.43
2018-07-03T00:32:16.687Z,13.45
2018-07-03T00:32:20.895Z,13.45
2018-07-03T00:32:25.000Z,13.45
2018-07-03T00:32:29.204Z,13.45
2018-07-03T00:32:33.421Z,13.45
2018-07-03T00:32:37.621Z,13.43
2018-07-03T00:32:41.825Z,13.44
2018-07-03T00:32:45.925Z,13.45
2018-07-03T00:32:50.024Z,13.45
2018-07-03T00:32:54.228Z,13.45
2018-07-03T00:32:58.547Z,13.44
2018-07-03T00:33:02.757Z,13.44
2018-07-03T00:33:07.073Z,13.45
2018-07-03T00:33:11.407Z,13.44
2018-07-03T00:33:15.498Z,13.44
2018-07-03T00:33:19.699Z,13.43
2018-07-03T00:33:23.905Z,13.44
2018-07-03T00:33:28.209Z,13.44
2018-07-03T00:33:32.408Z,13.43
2018-07-03T00:33:36.608Z,13.44
2018-07-03T00:33:40.813Z,13.42
2018-07-03T00:33:45.019Z,13.43
2018-07-03T00:33:49.341Z,13.43
2018-07-03T00:33:53.548Z,13.43
2018-07-03T00:33:57.646Z,13.42
2018-07-03T00:34:01.957Z,13.42
2018-07-03T00:34:05.942Z,13.43
2018-07-03T00:34:10.048Z,13.42
2018-07-03T00:34:14.357Z,13.42
2018-07-03T00:34:18.561Z,13.42
2018-07-03T00:34:22.662Z,13.42
2018-07-03T00:34:26.761Z,13.42
2018-07-03T00:34:30.918Z,13.42
2018-07-03T00:34:35.230Z,13.42
2018-07-03T00:34:39.442Z,13.42
2018-07-03T00:34:43.751Z,13.42
2018-07-03T00:34:48.070Z,13.42
2018-07-03T00:34:52.380Z,13.42
2018-07-03T00:34:56.590Z,13.42
2018-07-03T00:35:00.907Z,13.42
2018-07-03T00:35:05.106Z,13.42
2018-07-03T00:35:09.206Z,13.42
2018-07-03T00:35:13.418Z,13.42
2018-07-03T00:35:17.621Z,13.41
2018-07-03T00:35:21.839Z,13.42
2018-07-03T00:35:26.047Z,13.41
2018-07-03T00:35:30.040Z,13.42
2018-07-03T00:35:34.139Z,13.42
2018-07-03T00:35:38.132Z,13.42
2018-07-03T00:35:42.228Z,13.41
2018-07-03T00:35:46.436Z,13.42
2018-07-03T00:35:50.533Z,13.42
2018-07-03T00:35:54.844Z,13.43
2018-07-03T00:35:59.059Z,13.43
2018-07-03T00:36:03.287Z,13.42
2018-07-03T00:36:07.509Z,13.43
2018-07-03T00:36:11.818Z,13.43
2018-07-03T00:36:16.140Z,13.45
2018-07-03T00:36:20.459Z,13.43
2018-07-03T00:36:24.664Z,13.43
2018-07-03T00:36:28.658Z,13.43
2018-07-03T00:36:32.968Z,13.45
2018-07-03T00:36:37.277Z,13.44
2018-07-03T00:36:41.480Z,13.44
2018-07-03T00:36:45.685Z,13.44
2018-07-03T00:36:49.785Z,13.45
2018-07-03T00:36:54.098Z,13.45
2018-07-03T00:36:58.407Z,13.45
2018-07-03T00:37:02.501Z,13.44
2018-07-03T00:37:06.598Z,13.45
2018-07-03T00:37:10.798Z,13.45
2018-07-03T00:37:15.000Z,13.46
2018-07-03T00:37:19.318Z,13.45
2018-07-03T00:37:23.631Z,13.46
2018-07-03T00:37:27.840Z,13.45
2018-07-03T00:37:32.159Z,13.46
2018-07-03T00:37:36.367Z,13.46
2018-07-03T00:37:40.674Z,13.46
2018-07-03T00:37:44.941Z,13.46
2018-07-03T00:37:49.045Z,13.47
2018-07-03T00:37:53.246Z,13.45
2018-07-03T00:37:57.462Z,13.46
2018-07-03T00:38:01.668Z,13.46
2018-07-03T00:38:05.549Z,13.46
2018-07-03T00:38:09.855Z,13.46
2018-07-03T00:38:14.171Z,13.47
2018-07-03T00:38:18.480Z,13.46
2018-07-03T00:38:22.677Z,13.46
2018-07-03T00:38:26.881Z,13.47
2018-07-03T00:38:30.971Z,13.47
2018-07-03T00:38:35.171Z,13.47
2018-07-03T00:38:39.370Z,13.46
2018-07-03T00:38:43.468Z,13.47
2018-07-03T00:38:47.794Z,13.46
2018-07-03T00:38:52.113Z,13.46
2018-07-03T00:38:56.207Z,13.46
2018-07-03T00:39:00.308Z,13.46
2018-07-03T00:39:04.515Z,13.47
2018-07-03T00:39:08.610Z,13.47
2018-07-03T00:39:12.920Z,13.47
2018-07-03T00:39:17.118Z,13.47
2018-07-03T00:39:21.105Z,13.47
2018-07-03T00:39:25.413Z,13.47
2018-07-03T00:39:29.659Z,13.48
2018-07-03T00:39:33.754Z,13.48
2018-07-03T00:39:37.955Z,13.47
2018-07-03T00:39:42.159Z,13.48
2018-07-03T00:39:46.479Z,13.47
2018-07-03T00:39:50.476Z,13.48
2018-07-03T00:39:54.793Z,13.48
2018-07-03T00:39:59.096Z,13.48
2018-07-03T00:40:03.249Z,13.48
2018-07-03T00:40:07.459Z,13.48
2018-07-03T00:40:11.771Z,13.48
2018-07-03T00:40:16.084Z,13.48
2018-07-03T00:40:20.293Z,13.48
2018-07-03T00:40:24.183Z,13.48
2018-07-03T00:40:28.388Z,13.48
2018-07-03T00:40:32.752Z,13.49
2018-07-03T00:40:36.955Z,13.48
2018-07-03T00:40:41.264Z,13.49
2018-07-03T00:40:45.572Z,13.48
2018-07-03T00:40:49.669Z,13.49
2018-07-03T00:40:53.767Z,13.49
2018-07-03T00:40:58.010Z,13.48
2018-07-03T00:41:02.206Z,13.49
2018-07-03T00:41:06.415Z,13.48
2018-07-03T00:41:10.728Z,13.49
2018-07-03T00:41:15.032Z,13.49
2018-07-03T00:41:19.373Z,13.49
2018-07-03T00:41:23.478Z,13.49
2018-07-03T00:41:27.683Z,13.5
2018-07-03T00:41:31.890Z,13.5
2018-07-03T00:41:36.099Z,13.49
2018-07-03T00:41:40.409Z,13.48
2018-07-03T00:41:44.502Z,13.49
2018-07-03T00:41:48.705Z,13.48
2018-07-03T00:41:53.026Z,13.49
2018-07-03T00:41:57.124Z,13.49
2018-07-03T00:42:01.435Z,13.49
2018-07-03T00:42:05.549Z,13.48
2018-07-03T00:42:09.759Z,13.48
2018-07-03T00:42:13.864Z,13.49
2018-07-03T00:42:18.067Z,13.48
2018-07-03T00:42:22.426Z,13.49
2018-07-03T00:42:26.632Z,13.49
2018-07-03T00:42:30.941Z,13.49
2018-07-03T00:42:35.151Z,13.49
2018-07-03T00:42:39.354Z,13.49
2018-07-03T00:42:43.561Z,13.48
2018-07-03T00:42:47.764Z,13.49
2018-07-03T00:42:52.080Z,13.49
2018-07-03T00:42:56.175Z,13.48
2018-07-03T00:43:00.382Z,13.49
2018-07-03T00:43:04.582Z,13.48
2018-07-03T00:43:08.838Z,13.48
2018-07-03T00:43:13.149Z,13.48
2018-07-03T00:43:17.464Z,13.48
2018-07-03T00:43:21.677Z,13.48
2018-07-03T00:43:25.789Z,13.48
2018-07-03T00:43:29.987Z,13.48
2018-07-03T00:43:34.080Z,13.48
2018-07-03T00:43:38.187Z,13.48
2018-07-03T00:43:42.500Z,13.48
2018-07-03T00:43:46.695Z,13.48
2018-07-03T00:43:51.001Z,13.47
2018-07-03T00:43:55.199Z,13.47
2018-07-03T00:43:59.197Z,13.47
2018-07-03T00:44:03.311Z,13.46
2018-07-03T00:44:07.091Z,13.47
2018-07-03T00:44:11.407Z,13.47
2018-07-03T00:44:15.720Z,13.47
2018-07-03T00:44:19.925Z,13.47
2018-07-03T00:44:24.137Z,13.48
2018-07-03T00:44:28.443Z,13.47
2018-07-03T00:44:32.648Z,13.46
2018-07-03T00:44:36.639Z,13.46
2018-07-03T00:44:40.739Z,13.47
2018-07-03T00:44:44.890Z,13.46
2018-07-03T00:44:49.100Z,13.46
2018-07-03T00:44:53.408Z,13.45
2018-07-03T00:44:57.716Z,13.46
2018-07-03T00:45:01.923Z,13.46
2018-07-03T00:45:06.022Z,13.45
2018-07-03T00:45:10.328Z,13.45
2018-07-03T00:45:14.646Z,13.45
2018-07-03T00:45:18.955Z,13.44
2018-07-03T00:45:23.269Z,13.45
2018-07-03T00:45:27.363Z,13.45
2018-07-03T00:45:31.560Z,13.45
2018-07-03T00:45:35.911Z,13.45
2018-07-03T00:45:40.124Z,13.44
2018-07-03T00:45:44.115Z,13.45
2018-07-03T00:45:48.421Z,13.44
2018-07-03T00:45:52.627Z,13.45
2018-07-03T00:45:56.828Z,13.45
2018-07-03T00:46:00.931Z,13.44
2018-07-03T00:46:05.134Z,13.44
2018-07-03T00:46:09.244Z,13.44
2018-07-03T00:46:13.562Z,13.43
2018-07-03T00:46:17.764Z,13.43
2018-07-03T00:46:21.961Z,13.42
2018-07-03T00:46:26.273Z,13.43
2018-07-03T00:46:30.372Z,13.43
2018-07-03T00:46:34.466Z,13.43
2018-07-03T00:46:38.672Z,13.43
2018-07-03T00:46:42.983Z,13.44
2018-07-03T00:46:47.288Z,13.43
2018-07-03T00:46:51.594Z,13.43
2018-07-03T00:46:55.796Z,13.43
2018-07-03T00:46:59.995Z,13.42
2018-07-03T00:47:03.986Z,13.43
2018-07-03T00:47:08.195Z,13.43
2018-07-03T00:47:12.395Z,13.42
2018-07-03T00:47:16.713Z,13.43
2018-07-03T00:47:21.027Z,13.42
2018-07-03T00:47:25.122Z,13.42
2018-07-03T00:47:29.320Z,13.42
2018-07-03T00:47:33.387Z,13.42
2018-07-03T00:47:37.489Z,13.42
2018-07-03T00:47:41.801Z,13.42
2018-07-03T00:47:46.124Z,13.42
2018-07-03T00:47:50.438Z,13.42
2018-07-03T00:47:54.749Z,13.42
2018-07-03T00:47:58.738Z,13.41
2018-07-03T00:48:02.841Z,13.41
2018-07-03T00:48:07.059Z,13.42
2018-07-03T00:48:11.376Z,13.41
2018-07-03T00:48:15.584Z,13.42
2018-07-03T00:48:19.790Z,13.41
2018-07-03T00:48:24.001Z,13.42
2018-07-03T00:48:28.099Z,13.41
2018-07-03T00:48:32.196Z,13.41
2018-07-03T00:48:36.403Z,13.42
2018-07-03T00:48:40.611Z,13.41
2018-07-03T00:48:44.916Z,13.41
2018-07-03T00:48:49.166Z,13.42
2018-07-03T00:48:53.271Z,13.42
2018-07-03T00:48:57.471Z,13.41
2018-07-03T00:49:01.577Z,13.41
2018-07-03T00:49:05.672Z,13.42
2018-07-03T00:49:09.877Z,13.41
2018-07-03T00:49:14.080Z,13.42
2018-07-03T00:49:18.388Z,13.41
2018-07-03T00:49:22.597Z,13.42
2018-07-03T00:49:26.593Z,13.41
2018-07-03T00:49:30.787Z,13.41
2018-07-03T00:49:34.998Z,13.42
2018-07-03T00:49:39.211Z,13.41
2018-07-03T00:49:43.414Z,13.41
2018-07-03T00:49:47.516Z,13.42
2018-07-03T00:49:51.833Z,13.41
2018-07-03T00:49:56.152Z,13.41
2018-07-03T00:50:00.352Z,13.41
2018-07-03T00:50:04.567Z,13.41
2018-07-03T00:50:08.880Z,13.41
2018-07-03T00:50:13.082Z,13.41
2018-07-03T00:50:17.284Z,13.41
2018-07-03T00:50:21.484Z,13.41
2018-07-03T00:50:25.697Z,13.42
2018-07-03T00:50:29.811Z,13.41
2018-07-03T00:50:34.015Z,13.42
2018-07-03T00:50:38.103Z,13.42
2018-07-03T00:50:42.410Z,13.41
2018-07-03T00:50:46.727Z,13.42
2018-07-03T00:50:51.031Z,13.42
2018-07-03T00:50:55.022Z,13.41
2018-07-03T00:50:59.227Z,13.42
2018-07-03T00:51:03.422Z,13.42
2018-07-03T00:51:07.417Z,13.41
2018-07-03T00:51:11.725Z,13.42
2018-07-03T00:51:15.607Z,13.41
2018-07-03T00:51:19.922Z,13.41
2018-07-03T00:51:24.028Z,13.41
2018-07-03T00:51:28.121Z,13.41
2018-07-03T00:51:32.109Z,13.41
2018-07-03T00:51:36.212Z,13.41
2018-07-03T00:51:40.416Z,13.41
2018-07-03T00:51:44.508Z,13.42
2018-07-03T00:51:48.721Z,13.41
2018-07-03T00:51:53.073Z,13.41
2018-07-03T00:51:57.277Z,13.42
2018-07-03T00:52:01.486Z,13.42
2018-07-03T00:52:05.696Z,13.41
2018-07-03T00:52:09.997Z,13.41
2018-07-03T00:52:14.206Z,13.41
2018-07-03T00:52:18.412Z,13.4
2018-07-03T00:52:22.399Z,13.41
2018-07-03T00:52:26.607Z,13.42
2018-07-03T00:52:30.814Z,13.41
2018-07-03T00:52:35.033Z,13.42
2018-07-03T00:52:39.345Z,13.41
2018-07-03T00:52:43.668Z,13.41
2018-07-03T00:52:47.873Z,13.41
2018-07-03T00:52:52.073Z,13.41
2018-07-03T00:52:56.443Z,13.41
2018-07-03T00:53:00.644Z,13.41
2018-07-03T00:53:04.640Z,13.42
2018-07-03T00:53:08.839Z,13.41
2018-07-03T00:53:12.931Z,13.41
2018-07-03T00:53:17.237Z,13.41
2018-07-03T00:53:21.334Z,13.4
2018-07-03T00:53:25.545Z,13.41
2018-07-03T00:53:29.756Z,13.4
2018-07-03T00:53:33.851Z,13.41
2018-07-03T00:53:38.062Z,13.4
2018-07-03T00:53:42.372Z,13.4
2018-07-03T00:53:46.568Z,13.4
2018-07-03T00:53:50.771Z,13.41
2018-07-03T00:53:54.971Z,13.41
2018-07-03T00:53:59.064Z,13.4
2018-07-03T00:54:03.267Z,13.4
2018-07-03T00:54:07.367Z,13.39
2018-07-03T00:54:11.470Z,13.4
2018-07-03T00:54:15.679Z,13.4
2018-07-03T00:54:19.881Z,13.4
2018-07-03T00:54:24.189Z,13.4
2018-07-03T00:54:28.287Z,13.39
2018-07-03T00:54:32.385Z,13.4
2018-07-03T00:54:36.585Z,13.4
2018-07-03T00:54:40.790Z,13.4
2018-07-03T00:54:45.097Z,13.4